sensor_id;sensor_type;location;lat;lon;timestamp;pressure;altitude;pressure_sealevel;temperature;humidity
61963;BME280;47927;42.646;23.096;2023-03-25T00:00:42;91885.41;;;10.17;52.00
61963;BME280;47927;42.646;23.096;2023-03-25T00:03:09;91879.09;;;10.18;52.24
61963;BME280;47927;42.646;23.096;2023-03-25T00:05:38;91877.22;;;10.15;52.29
61963;BME280;47927;42.646;23.096;2023-03-25T00:08:04;91875.66;;;10.03;52.52
61963;BME280;47927;42.646;23.096;2023-03-25T00:10:30;91876.75;;;9.98;52.41
61963;BME280;47927;42.646;23.096;2023-03-25T00:12:56;91873.22;;;9.73;53.12
61963;BME280;47927;42.646;23.096;2023-03-25T00:15:29;91874.16;;;9.50;54.09
61963;BME280;47927;42.646;23.096;2023-03-25T00:17:59;91874.59;;;9.59;54.24
61963;BME280;47927;42.646;23.096;2023-03-25T00:20:24;91858.66;;;9.65;53.71
61963;BME280;47927;42.646;23.096;2023-03-25T00:22:52;91869.84;;;9.69;53.72
61963;BME280;47927;42.646;23.096;2023-03-25T00:25:18;91864.63;;;9.69;53.72
61963;BME280;47927;42.646;23.096;2023-03-25T00:27:46;91863.53;;;9.70;53.99
61963;BME280;47927;42.646;23.096;2023-03-25T00:30:14;91861.97;;;9.58;53.85
61963;BME280;47927;42.646;23.096;2023-03-25T00:32:39;91864.25;;;9.67;54.31
61963;BME280;47927;42.646;23.096;2023-03-25T00:35:06;91864.63;;;9.69;54.20
61963;BME280;47927;42.646;23.096;2023-03-25T00:37:33;91862.03;;;9.69;54.01
61963;BME280;47927;42.646;23.096;2023-03-25T00:39:58;91871.69;;;9.68;54.07
61963;BME280;47927;42.646;23.096;2023-03-25T00:42:24;91868.75;;;9.70;53.80
61963;BME280;47927;42.646;23.096;2023-03-25T00:44:52;91855.09;;;9.35;55.23
61963;BME280;47927;42.646;23.096;2023-03-25T00:47:18;91866.34;;;9.50;54.80
61963;BME280;47927;42.646;23.096;2023-03-25T00:49:47;91860.44;;;9.53;54.56
61963;BME280;47927;42.646;23.096;2023-03-25T00:52:13;91854.84;;;9.51;55.04
61963;BME280;47927;42.646;23.096;2023-03-25T00:54:40;91853.03;;;9.59;54.92
61963;BME280;47927;42.646;23.096;2023-03-25T00:57:06;91855.66;;;9.59;55.27
61963;BME280;47927;42.646;23.096;2023-03-25T00:59:32;91852.66;;;9.61;55.37
61963;BME280;47927;42.646;23.096;2023-03-25T01:01:58;91849.00;;;9.65;55.00
61963;BME280;47927;42.646;23.096;2023-03-25T01:04:24;91847.13;;;9.62;54.93
61963;BME280;47927;42.646;23.096;2023-03-25T01:06:49;91840.81;;;9.63;54.91
61963;BME280;47927;42.646;23.096;2023-03-25T01:09:19;91849.34;;;9.64;54.19
61963;BME280;47927;42.646;23.096;2023-03-25T01:11:46;91849.31;;;9.56;55.08
61963;BME280;47927;42.646;23.096;2023-03-25T01:14:19;91849.72;;;9.58;55.16
61963;BME280;47927;42.646;23.096;2023-03-25T01:16:45;91835.56;;;9.56;55.20
61963;BME280;47927;42.646;23.096;2023-03-25T01:19:12;91834.81;;;9.55;54.74
61963;BME280;47927;42.646;23.096;2023-03-25T01:21:38;91827.53;;;9.31;56.34
61963;BME280;47927;42.646;23.096;2023-03-25T01:24:05;91816.81;;;9.36;55.68
61963;BME280;47927;42.646;23.096;2023-03-25T01:26:31;91827.25;;;9.40;55.41
61963;BME280;47927;42.646;23.096;2023-03-25T01:28:57;91811.94;;;9.31;55.37
61963;BME280;47927;42.646;23.096;2023-03-25T01:31:22;91821.69;;;9.41;55.78
61963;BME280;47927;42.646;23.096;2023-03-25T01:33:50;91800.94;;;9.48;55.70
61963;BME280;47927;42.646;23.096;2023-03-25T01:36:15;91802.09;;;9.54;55.73
61963;BME280;47927;42.646;23.096;2023-03-25T01:38:41;91802.50;;;9.60;55.62
61963;BME280;47927;42.646;23.096;2023-03-25T01:41:08;91806.13;;;9.45;55.73
61963;BME280;47927;42.646;23.096;2023-03-25T01:43:34;91806.84;;;9.42;55.91
61963;BME280;47927;42.646;23.096;2023-03-25T01:46:00;91804.34;;;9.52;56.11
61963;BME280;47927;42.646;23.096;2023-03-25T01:48:40;91799.94;;;9.64;55.95
61963;BME280;47927;42.646;23.096;2023-03-25T01:51:11;91794.38;;;9.62;55.12
61963;BME280;47927;42.646;23.096;2023-03-25T01:53:39;91800.22;;;9.51;55.02
61963;BME280;47927;42.646;23.096;2023-03-25T01:56:06;91794.59;;;9.46;55.67
61963;BME280;47927;42.646;23.096;2023-03-25T01:58:34;91791.25;;;9.45;55.30
61963;BME280;47927;42.646;23.096;2023-03-25T02:01:00;91801.63;;;9.38;55.44
61963;BME280;47927;42.646;23.096;2023-03-25T02:03:27;91796.78;;;9.36;55.39
61963;BME280;47927;42.646;23.096;2023-03-25T02:06:01;91797.13;;;9.31;55.51
61963;BME280;47927;42.646;23.096;2023-03-25T02:08:32;91791.47;;;9.22;56.42
61963;BME280;47927;42.646;23.096;2023-03-25T02:11:02;91792.59;;;9.25;55.88
61963;BME280;47927;42.646;23.096;2023-03-25T02:13:28;91794.81;;;9.23;56.32
61963;BME280;47927;42.646;23.096;2023-03-25T02:22:05;91788.06;;;9.15;56.72
61963;BME280;47927;42.646;23.096;2023-03-25T02:24:52;91785.56;;;9.25;56.55
61963;BME280;47927;42.646;23.096;2023-03-25T02:27:39;91789.94;;;9.18;56.39
61963;BME280;47927;42.646;23.096;2023-03-25T02:41:29;91779.84;;;9.61;56.10
61963;BME280;47927;42.646;23.096;2023-03-25T02:44:06;91775.03;;;9.63;56.03
61963;BME280;47927;42.646;23.096;2023-03-25T02:46:40;91776.97;;;9.73;55.30
61963;BME280;47927;42.646;23.096;2023-03-25T02:49:17;91768.72;;;9.64;55.68
61963;BME280;47927;42.646;23.096;2023-03-25T02:51:49;91767.63;;;9.65;55.35
61963;BME280;47927;42.646;23.096;2023-03-25T02:54:18;91778.25;;;9.42;55.77
61963;BME280;47927;42.646;23.096;2023-03-25T02:56:47;91775.56;;;9.31;55.90
61963;BME280;47927;42.646;23.096;2023-03-25T02:59:17;91764.00;;;9.25;55.80
61963;BME280;47927;42.646;23.096;2023-03-25T03:01:43;91747.25;;;9.19;55.45
61963;BME280;47927;42.646;23.096;2023-03-25T03:04:10;91742.41;;;9.13;55.60
61963;BME280;47927;42.646;23.096;2023-03-25T03:06:41;91759.56;;;9.25;55.89
61963;BME280;47927;42.646;23.096;2023-03-25T03:09:24;91761.00;;;9.19;56.33
61963;BME280;47927;42.646;23.096;2023-03-25T03:12:05;91768.75;;;9.16;56.41
61963;BME280;47927;42.646;23.096;2023-03-25T03:14:59;91763.59;;;9.19;56.06
61963;BME280;47927;42.646;23.096;2023-03-25T03:20:18;91760.53;;;9.10;56.40
61963;BME280;47927;42.646;23.096;2023-03-25T03:22:58;91764.56;;;9.00;56.58
61963;BME280;47927;42.646;23.096;2023-03-25T03:25:49;91765.69;;;9.03;56.39
61963;BME280;47927;42.646;23.096;2023-03-25T03:28:26;91760.88;;;9.01;56.63
61963;BME280;47927;42.646;23.096;2023-03-25T03:33:39;91758.59;;;8.96;57.09
61963;BME280;47927;42.646;23.096;2023-03-25T03:36:13;91765.38;;;8.67;58.02
61963;BME280;47927;42.646;23.096;2023-03-25T03:38:46;91765.88;;;8.42;59.70
61963;BME280;47927;42.646;23.096;2023-03-25T03:41:17;91739.34;;;8.30;59.09
61963;BME280;47927;42.646;23.096;2023-03-25T03:43:49;91772.25;;;8.18;60.98
61963;BME280;47927;42.646;23.096;2023-03-25T03:46:21;91768.38;;;8.05;62.19
61963;BME280;47927;42.646;23.096;2023-03-25T03:48:53;91775.84;;;8.10;62.72
61963;BME280;47927;42.646;23.096;2023-03-25T03:51:27;91762.91;;;8.44;61.07
61963;BME280;47927;42.646;23.096;2023-03-25T03:54:19;91763.22;;;8.76;59.29
61963;BME280;47927;42.646;23.096;2023-03-25T03:56:54;91764.75;;;8.81;58.87
61963;BME280;47927;42.646;23.096;2023-03-25T03:59:40;91774.47;;;8.20;60.96
61963;BME280;47927;42.646;23.096;2023-03-25T04:02:16;91766.56;;;8.09;61.95
61963;BME280;47927;42.646;23.096;2023-03-25T04:04:47;91768.38;;;8.05;61.59
61963;BME280;47927;42.646;23.096;2023-03-25T04:07:16;91767.78;;;8.19;61.56
61963;BME280;47927;42.646;23.096;2023-03-25T04:12:33;91768.84;;;8.44;60.64
61963;BME280;47927;42.646;23.096;2023-03-25T04:15:00;91762.41;;;8.35;60.71
61963;BME280;47927;42.646;23.096;2023-03-25T04:17:28;91747.25;;;8.03;61.22
61963;BME280;47927;42.646;23.096;2023-03-25T04:19:58;91761.88;;;8.18;61.81
61963;BME280;47927;42.646;23.096;2023-03-25T04:22:24;91768.81;;;7.81;63.24
61963;BME280;47927;42.646;23.096;2023-03-25T04:24:50;91735.03;;;8.07;61.99
61963;BME280;47927;42.646;23.096;2023-03-25T04:27:19;91767.13;;;8.26;61.76
61963;BME280;47927;42.646;23.096;2023-03-25T04:29:48;91775.63;;;8.22;62.21
61963;BME280;47927;42.646;23.096;2023-03-25T04:32:16;91774.84;;;8.52;60.08
61963;BME280;47927;42.646;23.096;2023-03-25T04:34:42;91778.88;;;8.46;61.20
61963;BME280;47927;42.646;23.096;2023-03-25T04:37:07;91769.91;;;8.77;60.09
61963;BME280;47927;42.646;23.096;2023-03-25T04:39:33;91764.84;;;8.51;61.10
61963;BME280;47927;42.646;23.096;2023-03-25T04:41:58;91773.41;;;8.55;61.02
61963;BME280;47927;42.646;23.096;2023-03-25T04:44:31;91771.84;;;8.47;61.94
61963;BME280;47927;42.646;23.096;2023-03-25T04:47:06;91778.75;;;8.69;61.59
61963;BME280;47927;42.646;23.096;2023-03-25T04:49:34;91773.91;;;9.60;60.13
61963;BME280;47927;42.646;23.096;2023-03-25T04:51:59;91776.28;;;12.21;53.95
61963;BME280;47927;42.646;23.096;2023-03-25T04:54:26;91776.16;;;14.47;47.62
61963;BME280;47927;42.646;23.096;2023-03-25T04:56:52;91778.97;;;15.95;44.25
61963;BME280;47927;42.646;23.096;2023-03-25T04:59:19;91776.56;;;17.04;42.14
61963;BME280;47927;42.646;23.096;2023-03-25T05:01:46;91778.81;;;18.33;39.13
61963;BME280;47927;42.646;23.096;2023-03-25T05:04:13;91783.44;;;19.26;36.25
61963;BME280;47927;42.646;23.096;2023-03-25T05:06:46;91789.84;;;19.89;36.26
61963;BME280;47927;42.646;23.096;2023-03-25T05:09:17;91783.31;;;20.94;34.21
61963;BME280;47927;42.646;23.096;2023-03-25T05:11:44;91781.16;;;21.92;32.96
61963;BME280;47927;42.646;23.096;2023-03-25T05:14:29;91786.22;;;22.54;31.88
61963;BME280;47927;42.646;23.096;2023-03-25T05:16:54;91784.56;;;23.03;30.79
61963;BME280;47927;42.646;23.096;2023-03-25T05:19:21;91786.78;;;23.47;29.30
61963;BME280;47927;42.646;23.096;2023-03-25T05:21:47;91779.75;;;23.77;29.45
61963;BME280;47927;42.646;23.096;2023-03-25T05:24:13;91781.81;;;24.45;28.01
61963;BME280;47927;42.646;23.096;2023-03-25T05:26:40;91786.31;;;25.22;27.64
61963;BME280;47927;42.646;23.096;2023-03-25T05:29:09;91780.25;;;25.72;26.50
61963;BME280;47927;42.646;23.096;2023-03-25T05:31:39;91777.22;;;26.81;25.26
61963;BME280;47927;42.646;23.096;2023-03-25T05:34:05;91778.31;;;27.53;24.60
61963;BME280;47927;42.646;23.096;2023-03-25T05:36:33;91785.16;;;27.27;24.43
61963;BME280;47927;42.646;23.096;2023-03-25T05:38:59;91786.94;;;27.73;24.01
61963;BME280;47927;42.646;23.096;2023-03-25T05:41:26;91787.66;;;28.71;23.03
61963;BME280;47927;42.646;23.096;2023-03-25T05:43:58;91805.06;;;29.94;21.15
61963;BME280;47927;42.646;23.096;2023-03-25T05:46:26;91797.50;;;30.79;20.19
61963;BME280;47927;42.646;23.096;2023-03-25T05:48:54;91794.31;;;31.16;20.03
61963;BME280;47927;42.646;23.096;2023-03-25T05:51:22;91799.91;;;31.90;19.03
61963;BME280;47927;42.646;23.096;2023-03-25T05:53:48;91793.66;;;32.00;18.78
61963;BME280;47927;42.646;23.096;2023-03-25T05:56:19;91793.31;;;31.85;19.36
61963;BME280;47927;42.646;23.096;2023-03-25T05:58:47;91798.50;;;32.32;18.09
61963;BME280;47927;42.646;23.096;2023-03-25T06:01:13;91796.34;;;32.50;17.29
61963;BME280;47927;42.646;23.096;2023-03-25T06:03:43;91793.72;;;32.63;17.62
61963;BME280;47927;42.646;23.096;2023-03-25T06:06:09;91794.97;;;31.94;17.74
61963;BME280;47927;42.646;23.096;2023-03-25T06:08:48;91792.94;;;32.00;18.25
61963;BME280;47927;42.646;23.096;2023-03-25T06:11:16;91791.03;;;31.65;18.50
61963;BME280;47927;42.646;23.096;2023-03-25T06:13:42;91778.78;;;31.39;18.28
61963;BME280;47927;42.646;23.096;2023-03-25T06:16:18;91797.63;;;32.67;17.09
61963;BME280;47927;42.646;23.096;2023-03-25T06:18:48;91796.00;;;33.16;16.71
61963;BME280;47927;42.646;23.096;2023-03-25T06:21:19;91796.59;;;32.89;16.88
61963;BME280;47927;42.646;23.096;2023-03-25T06:23:45;91783.94;;;33.68;16.27
61963;BME280;47927;42.646;23.096;2023-03-25T06:26:14;91796.00;;;32.59;17.14
61963;BME280;47927;42.646;23.096;2023-03-25T06:28:40;91785.22;;;33.16;16.75
61963;BME280;47927;42.646;23.096;2023-03-25T06:31:24;91808.56;;;34.10;15.89
61963;BME280;47927;42.646;23.096;2023-03-25T06:33:53;91805.50;;;34.80;15.86
61963;BME280;47927;42.646;23.096;2023-03-25T06:36:20;91802.75;;;34.19;15.98
61963;BME280;47927;42.646;23.096;2023-03-25T06:38:47;91808.88;;;34.46;15.49
61963;BME280;47927;42.646;23.096;2023-03-25T06:41:15;91805.09;;;34.76;15.62
61963;BME280;47927;42.646;23.096;2023-03-25T06:43:47;91810.53;;;35.23;15.10
61963;BME280;47927;42.646;23.096;2023-03-25T06:46:31;91809.34;;;34.84;15.17
61963;BME280;47927;42.646;23.096;2023-03-25T06:49:13;91810.09;;;33.60;16.95
61963;BME280;47927;42.646;23.096;2023-03-25T06:51:38;91807.22;;;34.03;15.96
61963;BME280;47927;42.646;23.096;2023-03-25T06:54:04;91809.63;;;33.74;15.79
61963;BME280;47927;42.646;23.096;2023-03-25T06:56:29;91809.84;;;33.90;15.85
61963;BME280;47927;42.646;23.096;2023-03-25T06:58:55;91811.88;;;34.56;15.48
61963;BME280;47927;42.646;23.096;2023-03-25T07:01:21;91811.19;;;35.03;15.84
61963;BME280;47927;42.646;23.096;2023-03-25T07:03:46;91816.84;;;35.05;15.25
61963;BME280;47927;42.646;23.096;2023-03-25T07:06:16;91818.44;;;35.21;15.08
61963;BME280;47927;42.646;23.096;2023-03-25T07:08:42;91818.66;;;34.36;15.90
61963;BME280;47927;42.646;23.096;2023-03-25T07:11:07;91816.25;;;34.59;15.94
61963;BME280;47927;42.646;23.096;2023-03-25T07:13:33;91811.34;;;36.15;14.50
61963;BME280;47927;42.646;23.096;2023-03-25T07:15:59;91813.94;;;36.28;14.13
61963;BME280;47927;42.646;23.096;2023-03-25T07:18:26;91816.31;;;35.27;15.03
61963;BME280;47927;42.646;23.096;2023-03-25T07:20:51;91805.25;;;36.01;13.85
61963;BME280;47927;42.646;23.096;2023-03-25T07:23:17;91802.78;;;35.62;14.06
61963;BME280;47927;42.646;23.096;2023-03-25T07:25:43;91803.47;;;35.83;14.34
61963;BME280;47927;42.646;23.096;2023-03-25T07:28:09;91814.22;;;35.96;14.31
61963;BME280;47927;42.646;23.096;2023-03-25T07:30:40;91810.78;;;36.82;13.65
61963;BME280;47927;42.646;23.096;2023-03-25T07:33:05;91809.41;;;36.23;14.80
61963;BME280;47927;42.646;23.096;2023-03-25T07:35:31;91807.31;;;36.73;14.44
61963;BME280;47927;42.646;23.096;2023-03-25T07:37:56;91803.50;;;36.40;14.13
61963;BME280;47927;42.646;23.096;2023-03-25T07:40:22;91805.06;;;35.99;14.68
61963;BME280;47927;42.646;23.096;2023-03-25T07:42:47;91788.63;;;37.06;13.52
61963;BME280;47927;42.646;23.096;2023-03-25T07:45:20;91806.09;;;37.34;12.77
61963;BME280;47927;42.646;23.096;2023-03-25T07:47:48;91802.19;;;37.06;12.40
61963;BME280;47927;42.646;23.096;2023-03-25T07:50:19;91804.47;;;37.31;12.78
61963;BME280;47927;42.646;23.096;2023-03-25T07:52:46;91794.13;;;37.37;12.74
61963;BME280;47927;42.646;23.096;2023-03-25T07:55:12;91798.69;;;36.18;13.51
61963;BME280;47927;42.646;23.096;2023-03-25T07:57:39;91793.41;;;36.77;13.06
61963;BME280;47927;42.646;23.096;2023-03-25T08:00:06;91790.25;;;36.58;13.29
61963;BME280;47927;42.646;23.096;2023-03-25T08:02:37;91790.50;;;36.10;13.40
61963;BME280;47927;42.646;23.096;2023-03-25T08:05:04;91783.44;;;35.23;14.40
61963;BME280;47927;42.646;23.096;2023-03-25T08:07:31;91785.38;;;34.14;15.13
61963;BME280;47927;42.646;23.096;2023-03-25T08:09:57;91783.41;;;34.55;15.38
61963;BME280;47927;42.646;23.096;2023-03-25T08:12:22;91772.44;;;33.80;14.48
61963;BME280;47927;42.646;23.096;2023-03-25T08:14:48;91779.97;;;33.23;16.63
61963;BME280;47927;42.646;23.096;2023-03-25T08:17:13;91764.94;;;33.73;14.56
61963;BME280;47927;42.646;23.096;2023-03-25T08:19:39;91776.34;;;32.64;14.92
61963;BME280;47927;42.646;23.096;2023-03-25T08:22:04;91773.41;;;32.18;16.62
61963;BME280;47927;42.646;23.096;2023-03-25T08:24:30;91773.41;;;31.39;15.94
61963;BME280;47927;42.646;23.096;2023-03-25T08:26:56;91767.38;;;31.82;16.58
61963;BME280;47927;42.646;23.096;2023-03-25T08:29:25;91762.69;;;32.94;15.63
61963;BME280;47927;42.646;23.096;2023-03-25T08:31:51;91767.38;;;34.17;13.80
61963;BME280;47927;42.646;23.096;2023-03-25T08:34:19;91761.41;;;33.46;13.32
61963;BME280;47927;42.646;23.096;2023-03-25T08:36:45;91750.91;;;33.62;14.37
61963;BME280;47927;42.646;23.096;2023-03-25T08:39:11;91756.34;;;32.54;13.45
61963;BME280;47927;42.646;23.096;2023-03-25T08:41:38;91751.47;;;32.09;14.29
61963;BME280;47927;42.646;23.096;2023-03-25T08:44:04;91758.63;;;33.39;13.66
61963;BME280;47927;42.646;23.096;2023-03-25T08:46:30;91751.28;;;33.52;14.04
61963;BME280;47927;42.646;23.096;2023-03-25T08:48:55;91754.38;;;34.42;13.15
61963;BME280;47927;42.646;23.096;2023-03-25T08:51:21;91750.00;;;34.25;12.81
61963;BME280;47927;42.646;23.096;2023-03-25T08:53:47;91744.88;;;35.30;11.23
61963;BME280;47927;42.646;23.096;2023-03-25T08:56:12;91740.13;;;35.44;10.99
61963;BME280;47927;42.646;23.096;2023-03-25T08:58:38;91736.59;;;35.78;11.56
61963;BME280;47927;42.646;23.096;2023-03-25T09:01:04;91734.91;;;35.67;11.59
61963;BME280;47927;42.646;23.096;2023-03-25T09:03:31;91734.97;;;35.12;11.67
61963;BME280;47927;42.646;23.096;2023-03-25T09:05:57;91731.19;;;35.15;11.51
61963;BME280;47927;42.646;23.096;2023-03-25T09:08:27;91737.06;;;34.72;11.35
61963;BME280;47927;42.646;23.096;2023-03-25T09:10:54;91733.38;;;34.82;12.47
61963;BME280;47927;42.646;23.096;2023-03-25T09:13:20;91727.66;;;35.20;11.82
61963;BME280;47927;42.646;23.096;2023-03-25T09:15:45;91728.59;;;34.54;12.06
61963;BME280;47927;42.646;23.096;2023-03-25T09:18:11;91726.19;;;33.97;12.85
61963;BME280;47927;42.646;23.096;2023-03-25T09:20:37;91724.94;;;33.98;12.35
61963;BME280;47927;42.646;23.096;2023-03-25T09:23:03;91724.69;;;32.35;14.46
61963;BME280;47927;42.646;23.096;2023-03-25T09:25:28;91727.31;;;32.98;14.16
61963;BME280;47927;42.646;23.096;2023-03-25T09:27:54;91724.53;;;33.68;13.10
61963;BME280;47927;42.646;23.096;2023-03-25T09:30:20;91713.81;;;33.62;14.14
61963;BME280;47927;42.646;23.096;2023-03-25T09:32:45;91715.31;;;34.03;13.62
61963;BME280;47927;42.646;23.096;2023-03-25T09:35:11;91710.56;;;33.50;14.34
61963;BME280;47927;42.646;23.096;2023-03-25T09:37:37;91713.28;;;32.67;14.91
61963;BME280;47927;42.646;23.096;2023-03-25T09:40:03;91718.69;;;33.18;14.67
61963;BME280;47927;42.646;23.096;2023-03-25T09:42:56;91716.78;;;33.45;14.02
61963;BME280;47927;42.646;23.096;2023-03-25T09:45:31;91724.41;;;34.26;13.34
61963;BME280;47927;42.646;23.096;2023-03-25T09:50:33;91714.25;;;33.79;13.92
61963;BME280;47927;42.646;23.096;2023-03-25T09:53:04;91717.53;;;34.52;13.27
61963;BME280;47927;42.646;23.096;2023-03-25T09:55:35;91709.13;;;34.56;12.58
61963;BME280;47927;42.646;23.096;2023-03-25T10:01:37;91696.41;;;32.42;13.73
61963;BME280;47927;42.646;23.096;2023-03-25T10:20:54;91671.34;;;34.63;12.67
61963;BME280;47927;42.646;23.096;2023-03-25T10:26:26;91666.69;;;33.31;13.56
61963;BME280;47927;42.646;23.096;2023-03-25T10:29:13;91670.16;;;33.45;14.49
61963;BME280;47927;42.646;23.096;2023-03-25T10:31:52;91664.22;;;33.46;13.14
61963;BME280;47927;42.646;23.096;2023-03-25T10:34:21;91654.84;;;33.21;14.18
61963;BME280;47927;42.646;23.096;2023-03-25T10:36:52;91656.56;;;33.50;13.94
61963;BME280;47927;42.646;23.096;2023-03-25T10:39:20;91667.16;;;34.01;13.75
61963;BME280;47927;42.646;23.096;2023-03-25T10:41:52;91655.97;;;32.80;13.63
61963;BME280;47927;42.646;23.096;2023-03-25T10:44:24;91659.16;;;32.46;14.46
61963;BME280;47927;42.646;23.096;2023-03-25T10:46:57;91650.53;;;31.91;14.59
61963;BME280;47927;42.646;23.096;2023-03-25T10:49:27;91653.25;;;31.42;15.28
61963;BME280;47927;42.646;23.096;2023-03-25T10:51:54;91651.72;;;30.50;16.12
61963;BME280;47927;42.646;23.096;2023-03-25T10:54:26;91629.66;;;30.93;15.71
61963;BME280;47927;42.646;23.096;2023-03-25T10:56:54;91627.53;;;30.50;16.42
61963;BME280;47927;42.646;23.096;2023-03-25T11:01:50;91633.06;;;29.69;17.41
61963;BME280;47927;42.646;23.096;2023-03-25T11:04:18;91633.56;;;29.57;17.32
61963;BME280;47927;42.646;23.096;2023-03-25T11:06:51;91636.00;;;29.66;18.20
61963;BME280;47927;42.646;23.096;2023-03-25T11:11:47;91638.69;;;29.66;16.54
61963;BME280;47927;42.646;23.096;2023-03-25T11:14:14;91632.22;;;29.11;17.30
61963;BME280;47927;42.646;23.096;2023-03-25T11:16:45;91631.72;;;28.78;17.97
61963;BME280;47927;42.646;23.096;2023-03-25T11:19:19;91624.66;;;28.75;17.71
61963;BME280;47927;42.646;23.096;2023-03-25T11:21:47;91611.38;;;27.39;18.68
61963;BME280;47927;42.646;23.096;2023-03-25T11:24:17;91621.66;;;26.71;19.92
61963;BME280;47927;42.646;23.096;2023-03-25T11:26:42;91619.00;;;26.77;20.16
61963;BME280;47927;42.646;23.096;2023-03-25T11:29:18;91614.56;;;27.00;19.71
61963;BME280;47927;42.646;23.096;2023-03-25T11:32:04;91587.56;;;26.34;20.39
61963;BME280;47927;42.646;23.096;2023-03-25T11:34:31;91603.78;;;26.83;20.72
61963;BME280;47927;42.646;23.096;2023-03-25T11:37:01;91606.66;;;27.17;20.66
61963;BME280;47927;42.646;23.096;2023-03-25T11:39:38;91588.59;;;27.06;20.25
61963;BME280;47927;42.646;23.096;2023-03-25T11:42:23;91590.19;;;27.30;20.25
61963;BME280;47927;42.646;23.096;2023-03-25T11:48:00;91588.13;;;26.44;20.53
61963;BME280;47927;42.646;23.096;2023-03-25T11:50:28;91586.78;;;26.28;21.25
61963;BME280;47927;42.646;23.096;2023-03-25T11:52:57;91586.38;;;26.35;20.64
61963;BME280;47927;42.646;23.096;2023-03-25T11:55:26;91580.28;;;26.35;21.25
61963;BME280;47927;42.646;23.096;2023-03-25T11:57:54;91578.44;;;26.15;24.92
61963;BME280;47927;42.646;23.096;2023-03-25T12:05:39;91566.31;;;25.27;22.71
61963;BME280;47927;42.646;23.096;2023-03-25T12:08:12;91564.66;;;25.29;22.31
61963;BME280;47927;42.646;23.096;2023-03-25T12:11:04;91561.50;;;25.51;24.54
61963;BME280;47927;42.646;23.096;2023-03-25T12:16:34;91562.72;;;25.30;22.52
61963;BME280;47927;42.646;23.096;2023-03-25T12:19:18;91562.78;;;25.15;22.92
61963;BME280;47927;42.646;23.096;2023-03-25T12:22:09;91549.41;;;24.94;23.47
61963;BME280;47927;42.646;23.096;2023-03-25T12:33:23;91551.53;;;25.72;21.83
61963;BME280;47927;42.646;23.096;2023-03-25T12:36:20;91549.59;;;25.26;22.08
61963;BME280;47927;42.646;23.096;2023-03-25T12:45:20;91541.91;;;24.93;21.86
61963;BME280;47927;42.646;23.096;2023-03-25T12:48:26;91529.44;;;24.34;23.00
61963;BME280;47927;42.646;23.096;2023-03-25T12:51:02;91514.03;;;24.08;23.00
61963;BME280;47927;42.646;23.096;2023-03-25T12:56:59;91538.34;;;23.72;24.72
61963;BME280;47927;42.646;23.096;2023-03-25T13:02:05;91545.47;;;23.65;24.29
61963;BME280;47927;42.646;23.096;2023-03-25T13:07:33;91539.59;;;23.23;25.03
61963;BME280;47927;42.646;23.096;2023-03-25T13:10:27;91544.59;;;23.45;24.43
61963;BME280;47927;42.646;23.096;2023-03-25T13:12:58;91544.88;;;23.61;24.45
61963;BME280;47927;42.646;23.096;2023-03-25T13:15:47;91540.56;;;23.49;24.51
61963;BME280;47927;42.646;23.096;2023-03-25T13:18:20;91558.59;;;23.30;24.95
61963;BME280;47927;42.646;23.096;2023-03-25T13:21:06;91554.41;;;23.14;25.09
61963;BME280;47927;42.646;23.096;2023-03-25T13:23:35;91553.13;;;23.10;25.24
61963;BME280;47927;42.646;23.096;2023-03-25T13:26:06;91558.00;;;23.02;24.89
61963;BME280;47927;42.646;23.096;2023-03-25T13:28:47;91567.06;;;22.95;25.54
61963;BME280;47927;42.646;23.096;2023-03-25T13:31:18;91579.59;;;22.01;28.16
61963;BME280;47927;42.646;23.096;2023-03-25T13:34:23;91573.47;;;20.71;34.89
61963;BME280;47927;42.646;23.096;2023-03-25T13:42:58;91602.03;;;18.62;43.74
61963;BME280;47927;42.646;23.096;2023-03-25T13:46:35;91596.00;;;18.24;45.13
61963;BME280;47927;42.646;23.096;2023-03-25T13:48:57;91607.91;;;18.03;48.06
61963;BME280;47927;42.646;23.096;2023-03-25T13:51:26;91606.44;;;17.27;49.84
61963;BME280;47927;42.646;23.096;2023-03-25T13:54:07;91541.88;;;17.22;50.36
61963;BME280;47927;42.646;23.096;2023-03-25T14:02:10;91589.28;;;17.81;51.40
61963;BME280;47927;42.646;23.096;2023-03-25T14:10:34;91583.53;;;17.69;52.30
61963;BME280;47927;42.646;23.096;2023-03-25T14:13:25;91576.38;;;17.70;52.54
61963;BME280;47927;42.646;23.096;2023-03-25T14:18:21;91543.88;;;17.60;52.02
61963;BME280;47927;42.646;23.096;2023-03-25T14:20:47;91515.47;;;16.48;52.69
61963;BME280;47927;42.646;23.096;2023-03-25T14:23:18;91512.47;;;15.97;54.95
61963;BME280;47927;42.646;23.096;2023-03-25T14:25:51;91506.97;;;15.91;54.90
61963;BME280;47927;42.646;23.096;2023-03-25T14:28:32;91511.00;;;16.12;55.91
61963;BME280;47927;42.646;23.096;2023-03-25T14:31:23;91498.06;;;16.21;54.28
61963;BME280;47927;42.646;23.096;2023-03-25T14:37:08;91490.50;;;16.39;56.26
61963;BME280;47927;42.646;23.096;2023-03-25T14:39:37;91492.03;;;16.70;54.03
61963;BME280;47927;42.646;23.096;2023-03-25T14:44:35;91490.59;;;15.47;56.02
61963;BME280;47927;42.646;23.096;2023-03-25T14:49:46;91486.88;;;17.12;54.65
61963;BME280;47927;42.646;23.096;2023-03-25T14:52:15;91473.69;;;17.41;53.75
61963;BME280;47927;42.646;23.096;2023-03-25T14:54:43;91478.47;;;17.71;51.58
61963;BME280;47927;42.646;23.096;2023-03-25T14:57:18;91483.22;;;17.64;50.59
61963;BME280;47927;42.646;23.096;2023-03-25T14:59:53;91488.44;;;17.80;47.75
61963;BME280;47927;42.646;23.096;2023-03-25T15:02:23;91481.91;;;17.97;48.01
61963;BME280;47927;42.646;23.096;2023-03-25T15:10:52;91486.06;;;17.69;53.69
61963;BME280;47927;42.646;23.096;2023-03-25T15:13:29;91488.44;;;17.80;53.42
61963;BME280;47927;42.646;23.096;2023-03-25T15:16:01;91481.47;;;17.99;53.46